createdAt,value
2019-01-08T00:01:22.960Z,100977.00
2019-01-08T00:03:50.071Z,100986.45
2019-01-08T00:06:17.519Z,100975.61
2019-01-08T00:08:44.949Z,100964.58
2019-01-08T00:11:12.788Z,100960.67
2019-01-08T00:13:40.406Z,100956.73
2019-01-08T00:16:07.646Z,100936.03
2019-01-08T00:18:35.141Z,100936.23
2019-01-08T00:21:03.340Z,100924.66
2019-01-08T00:23:30.819Z,100915.59
2019-01-08T00:25:58.070Z,100899.13
2019-01-08T00:28:25.979Z,100893.88
2019-01-08T00:30:53.262Z,100899.20
2019-01-08T00:33:20.793Z,100899.38
2019-01-08T00:35:48.434Z,100895.98
2019-01-08T00:38:15.971Z,100897.62
2019-01-08T00:40:43.566Z,100885.42
2019-01-08T00:43:10.986Z,100883.20
2019-01-08T00:45:38.405Z,100882.95
2019-01-08T00:48:06.297Z,100888.53
2019-01-08T00:50:33.623Z,100869.66
2019-01-08T00:53:00.897Z,100880.56
2019-01-08T00:55:28.090Z,100874.52
2019-01-08T00:57:55.675Z,100876.27
2019-01-08T01:00:23.183Z,100884.83
2019-01-08T01:02:50.546Z,100877.81
2019-01-08T01:05:18.375Z,100866.02
2019-01-08T01:07:45.805Z,100865.90
2019-01-08T01:10:13.563Z,100856.09
2019-01-08T01:12:40.818Z,100848.65
2019-01-08T01:15:08.798Z,100846.53
2019-01-08T01:17:39.459Z,100840.54
2019-01-08T01:20:07.870Z,100832.46
2019-01-08T01:22:35.471Z,100826.47
2019-01-08T01:25:02.999Z,100812.87
2019-01-08T01:27:30.469Z,100803.67
2019-01-08T01:29:57.979Z,100796.67
2019-01-08T01:32:25.421Z,100795.89
2019-01-08T01:34:53.103Z,100797.19
2019-01-08T01:37:20.529Z,100787.76
2019-01-08T01:39:47.958Z,100785.16
2019-01-08T01:42:15.530Z,100767.92
2019-01-08T01:44:43.106Z,100769.22
2019-01-08T01:47:10.593Z,100763.33
2019-01-08T01:49:38.707Z,100754.88
2019-01-08T01:52:06.247Z,100759.00
2019-01-08T01:54:33.676Z,100763.84
2019-01-08T01:57:01.623Z,100752.31
2019-01-08T01:59:32.351Z,100742.16
2019-01-08T02:02:00.216Z,100735.27
2019-01-08T02:04:27.694Z,100741.33
2019-01-08T02:06:55.142Z,100741.94
2019-01-08T02:09:22.691Z,100735.31
2019-01-08T02:11:50.444Z,100737.36
2019-01-08T02:14:18.019Z,100740.31
2019-01-08T02:16:45.950Z,100731.11
2019-01-08T02:19:14.152Z,100727.88
2019-01-08T02:21:41.527Z,100723.81
2019-01-08T02:24:09.398Z,100718.44
2019-01-08T02:26:36.998Z,100720.15
2019-01-08T02:29:04.802Z,100721.87
2019-01-08T02:31:32.502Z,100712.95
2019-01-08T02:33:59.766Z,100708.94
2019-01-08T02:36:27.312Z,100712.06
2019-01-08T02:38:54.908Z,100706.31
2019-01-08T02:41:22.781Z,100703.34
2019-01-08T02:43:51.340Z,100699.77
2019-01-08T02:46:19.518Z,100697.51
2019-01-08T02:48:46.993Z,100683.43
2019-01-08T02:51:14.386Z,100688.13
2019-01-08T02:53:42.528Z,100680.92
2019-01-08T02:56:10.306Z,100671.27
2019-01-08T02:58:37.721Z,100663.81
2019-01-08T03:01:06.051Z,100663.50
2019-01-08T03:03:33.532Z,100649.12
2019-01-08T03:06:00.969Z,100640.87
2019-01-08T03:08:28.827Z,100640.77
2019-01-08T03:10:56.357Z,100629.12
2019-01-08T03:13:23.853Z,100626.27
2019-01-08T03:15:51.261Z,100617.96
2019-01-08T03:18:18.665Z,100614.62
2019-01-08T03:20:46.822Z,100612.88
2019-01-08T03:23:14.343Z,100618.94
2019-01-08T03:25:41.923Z,100606.63
2019-01-08T03:28:09.079Z,100610.69
2019-01-08T03:30:36.506Z,100608.03
2019-01-08T03:33:04.262Z,100610.17
2019-01-08T03:35:31.901Z,100602.13
2019-01-08T03:37:59.317Z,100603.02
2019-01-08T03:40:27.159Z,100607.48
2019-01-08T03:42:54.410Z,100596.25
2019-01-08T03:45:21.990Z,100590.70
2019-01-08T03:47:49.582Z,100597.39
2019-01-08T03:50:17.650Z,100596.87
2019-01-08T03:52:45.203Z,100600.81
2019-01-08T03:55:13.393Z,100600.20
2019-01-08T03:57:41.214Z,100594.91
2019-01-08T04:00:10.425Z,100584.70
2019-01-08T04:02:37.693Z,100590.18
2019-01-08T04:05:05.281Z,100582.70
2019-01-08T04:07:33.379Z,100578.48
2019-01-08T04:10:01.101Z,100575.50
2019-01-08T04:12:28.875Z,100574.16
2019-01-08T04:14:56.962Z,100580.00
2019-01-08T04:17:24.553Z,100576.35
2019-01-08T04:19:51.893Z,100574.16
2019-01-08T04:22:19.807Z,100567.28
2019-01-08T04:24:47.258Z,100574.25
2019-01-08T04:27:14.678Z,100570.09
2019-01-08T04:29:50.189Z,100555.77
2019-01-08T04:32:12.007Z,100551.61
2019-01-08T04:34:39.559Z,100550.66
2019-01-08T04:37:06.963Z,100534.70
2019-01-08T04:39:34.797Z,100537.08
2019-01-08T04:42:02.359Z,100531.98
2019-01-08T04:44:29.938Z,100534.18
2019-01-08T04:46:57.454Z,100529.89
2019-01-08T04:49:24.632Z,100532.08
2019-01-08T04:51:52.018Z,100531.87
2019-01-08T04:54:19.878Z,100536.77
2019-01-08T04:56:47.660Z,100533.01
2019-01-08T04:59:15.579Z,100528.63
2019-01-08T05:01:43.180Z,100527.91
2019-01-08T05:04:10.912Z,100530.20
2019-01-08T05:06:38.882Z,100528.75
2019-01-08T05:09:07.166Z,100522.78
2019-01-08T05:11:35.731Z,100518.77
2019-01-08T05:14:05.979Z,100514.91
2019-01-08T05:16:33.716Z,100516.66
2019-01-08T05:19:01.945Z,100513.22
2019-01-08T05:21:30.072Z,100495.28
2019-01-08T05:23:58.799Z,100499.73
2019-01-08T05:26:28.079Z,100503.19
2019-01-08T05:28:55.472Z,100507.76
2019-01-08T05:31:23.208Z,100502.92
2019-01-08T05:33:52.585Z,100490.84
2019-01-08T05:36:20.153Z,100485.21
2019-01-08T05:38:49.176Z,100479.26
2019-01-08T05:41:16.742Z,100461.42
2019-01-08T05:43:44.233Z,100465.58
2019-01-08T05:46:11.984Z,100461.63
2019-01-08T05:48:40.339Z,100465.39
2019-01-08T05:51:08.735Z,100462.97
2019-01-08T05:53:36.849Z,100448.89
2019-01-08T05:56:04.405Z,100448.79
2019-01-08T05:58:32.673Z,100449.69
2019-01-08T06:00:59.935Z,100460.03
2019-01-08T06:03:27.533Z,100467.86
2019-01-08T06:05:54.635Z,100470.47
2019-01-08T06:08:22.290Z,100469.12
2019-01-08T06:10:49.791Z,100460.45
2019-01-08T06:13:17.566Z,100467.45
2019-01-08T06:15:45.592Z,100464.73
2019-01-08T06:18:13.593Z,100458.39
2019-01-08T06:20:41.233Z,100461.33
2019-01-08T06:23:08.977Z,100451.84
2019-01-08T06:25:36.731Z,100452.98
2019-01-08T06:28:04.556Z,100455.48
2019-01-08T06:30:32.137Z,100458.19
2019-01-08T06:32:59.642Z,100458.81
2019-01-08T06:35:27.286Z,100446.61
2019-01-08T06:37:55.015Z,100446.42
2019-01-08T06:40:22.276Z,100438.98
2019-01-08T06:42:49.718Z,100445.90
2019-01-08T06:45:17.190Z,100436.93
2019-01-08T06:47:45.034Z,100441.40
2019-01-08T06:50:12.478Z,100446.52
2019-01-08T06:52:40.185Z,100444.95
2019-01-08T06:55:08.100Z,100440.27
2019-01-08T06:57:37.057Z,100435.58
2019-01-08T07:00:06.138Z,100444.02
2019-01-08T07:02:33.362Z,100451.73
2019-01-08T07:05:01.070Z,100458.30
2019-01-08T07:07:28.173Z,100449.98
2019-01-08T07:09:56.632Z,100444.86
2019-01-08T07:12:24.129Z,100439.73
2019-01-08T07:14:51.304Z,100439.83
2019-01-08T07:17:18.427Z,100436.19
2019-01-08T07:19:49.395Z,100439.73
2019-01-08T07:22:16.815Z,100431.80
2019-01-08T07:24:44.682Z,100434.39
2019-01-08T07:27:16.528Z,100433.24
2019-01-08T07:29:41.960Z,100430.13
2019-01-08T07:32:09.934Z,100429.70
2019-01-08T07:34:37.394Z,100420.82
2019-01-08T07:37:05.631Z,100404.98
2019-01-08T07:39:33.070Z,100399.86
2019-01-08T07:42:00.448Z,100398.50
2019-01-08T07:44:28.135Z,100382.84
2019-01-08T07:46:55.813Z,100383.27
2019-01-08T07:49:23.660Z,100386.08
2019-01-08T07:51:51.252Z,100391.41
2019-01-08T07:54:19.161Z,100382.31
2019-01-08T07:56:46.535Z,100378.16
2019-01-08T07:59:14.177Z,100375.44
2019-01-08T08:01:41.430Z,100377.02
2019-01-08T08:04:09.430Z,100368.25
2019-01-08T08:06:36.797Z,100384.09
2019-01-08T08:09:06.232Z,100381.39
2019-01-08T08:11:34.047Z,100367.90
2019-01-08T08:14:01.146Z,100363.83
2019-01-08T08:16:29.030Z,100354.66
2019-01-08T08:18:56.903Z,100355.40
2019-01-08T08:21:24.676Z,100352.36
2019-01-08T08:23:51.803Z,100353.41
2019-01-08T08:26:19.657Z,100336.69
2019-01-08T08:28:46.942Z,100341.48
2019-01-08T08:31:14.451Z,100329.25
2019-01-08T08:33:42.354Z,100337.61
2019-01-08T08:36:10.450Z,100321.95
2019-01-08T08:38:38.217Z,100315.27
2019-01-08T08:41:05.645Z,100314.70
2019-01-08T08:43:33.222Z,100309.94
2019-01-08T08:46:01.571Z,100315.23
2019-01-08T08:48:29.400Z,100311.91
2019-01-08T08:50:56.841Z,100306.78
2019-01-08T08:53:24.152Z,100300.16
2019-01-08T08:55:51.452Z,100303.43
2019-01-08T08:58:19.502Z,100310.75
2019-01-08T09:00:47.170Z,100311.30
2019-01-08T09:03:14.880Z,100306.03
2019-01-08T09:05:42.667Z,100301.77
2019-01-08T09:08:09.781Z,100304.68
2019-01-08T09:10:37.269Z,100306.02
2019-01-08T09:13:04.546Z,100301.94
2019-01-08T09:15:31.874Z,100314.44
2019-01-08T09:17:59.378Z,100302.02
2019-01-08T09:20:26.919Z,100316.16
2019-01-08T09:22:54.710Z,100322.61
2019-01-08T09:25:22.645Z,100329.71
2019-01-08T09:27:50.220Z,100316.70
2019-01-08T09:30:17.979Z,100317.45
2019-01-08T09:32:45.608Z,100328.33
2019-01-08T09:35:13.709Z,100306.67
2019-01-08T09:37:41.049Z,100315.84
2019-01-08T09:40:08.575Z,100321.06
2019-01-08T09:42:36.335Z,100322.91
2019-01-08T09:45:04.967Z,100324.11
2019-01-08T09:47:32.394Z,100311.05
2019-01-08T09:50:00.942Z,100321.25
2019-01-08T09:52:28.303Z,100317.06
2019-01-08T09:54:55.557Z,100319.25
2019-01-08T09:57:22.702Z,100326.46
2019-01-08T09:59:50.422Z,100330.42
2019-01-08T10:02:18.104Z,100331.48
2019-01-08T10:04:45.482Z,100324.20
2019-01-08T10:07:13.030Z,100345.98
2019-01-08T10:09:41.011Z,100343.78
2019-01-08T10:12:09.030Z,100340.84
2019-01-08T10:14:36.809Z,100337.97
2019-01-08T10:17:04.324Z,100342.16
2019-01-08T10:19:31.760Z,100331.86
2019-01-08T10:21:58.883Z,100330.92
2019-01-08T10:24:26.518Z,100333.60
2019-01-08T10:26:53.739Z,100316.66
2019-01-08T10:29:20.870Z,100322.73
2019-01-08T10:31:48.184Z,100296.38
2019-01-08T10:34:16.170Z,100300.23
2019-01-08T10:36:43.567Z,100302.38
2019-01-08T10:39:11.245Z,100292.64
2019-01-08T10:41:38.377Z,100290.97
2019-01-08T10:44:05.738Z,100294.47
2019-01-08T10:46:37.391Z,100290.47
2019-01-08T10:49:02.804Z,100289.45
2019-01-08T10:51:30.046Z,100286.25
2019-01-08T10:53:57.652Z,100276.87
2019-01-08T10:56:25.412Z,100267.48
2019-01-08T10:58:52.616Z,100269.23
2019-01-08T11:01:21.029Z,100264.37
2019-01-08T11:03:48.759Z,100253.88
2019-01-08T11:06:16.535Z,100255.69
2019-01-08T11:08:44.058Z,100251.23
2019-01-08T11:11:11.829Z,100256.91
2019-01-08T11:13:39.265Z,100244.41
2019-01-08T11:16:06.502Z,100250.26
2019-01-08T11:18:34.250Z,100243.88
2019-01-08T11:21:01.836Z,100237.55
2019-01-08T11:23:29.914Z,100228.59
2019-01-08T11:25:57.164Z,100236.17
2019-01-08T11:28:25.137Z,100229.89
2019-01-08T11:30:52.670Z,100224.11
2019-01-08T11:33:20.165Z,100219.96
2019-01-08T11:35:48.462Z,100219.53
2019-01-08T11:38:19.502Z,100223.66
2019-01-08T11:40:46.682Z,100220.41
2019-01-08T11:43:14.155Z,100220.44
2019-01-08T11:45:41.505Z,100223.41
2019-01-08T11:48:09.423Z,100223.06
2019-01-08T11:50:37.102Z,100210.77
2019-01-08T11:53:04.543Z,100210.30
2019-01-08T11:55:32.366Z,100210.20
2019-01-08T11:57:59.928Z,100221.95
2019-01-08T12:00:27.637Z,100200.73
2019-01-08T12:02:55.356Z,100200.10
2019-01-08T12:05:23.123Z,100194.96
2019-01-08T12:07:50.430Z,100181.01
2019-01-08T12:10:17.790Z,100180.25
2019-01-08T12:12:45.462Z,100177.09
2019-01-08T12:15:13.249Z,100182.00
2019-01-08T12:17:41.014Z,100167.35
2019-01-08T12:20:10.579Z,100165.83
2019-01-08T12:22:40.970Z,100149.73
2019-01-08T12:25:07.994Z,100145.25
2019-01-08T12:27:35.419Z,100148.77
2019-01-08T12:30:04.014Z,100149.37
2019-01-08T12:32:31.817Z,100151.03
2019-01-08T12:34:58.961Z,100135.86
2019-01-08T12:37:26.781Z,100133.78
2019-01-08T12:39:54.059Z,100141.05
2019-01-08T12:42:25.019Z,100133.01
2019-01-08T12:44:53.123Z,100145.54
2019-01-08T12:47:20.664Z,100134.38
2019-01-08T12:49:48.823Z,100117.52
2019-01-08T12:52:15.986Z,100122.61
2019-01-08T12:54:43.526Z,100122.84
2019-01-08T12:57:11.261Z,100104.94
2019-01-08T12:59:38.400Z,100112.88
2019-01-08T13:02:14.291Z,100111.49
2019-01-08T13:04:35.266Z,100110.50
2019-01-08T13:07:02.858Z,100120.61
2019-01-08T13:09:30.526Z,100108.61
2019-01-08T13:11:57.911Z,100111.92
2019-01-08T13:14:25.357Z,100111.98
2019-01-08T13:16:53.041Z,100107.02
2019-01-08T13:19:20.750Z,100113.44
2019-01-08T13:21:48.293Z,100116.89
2019-01-08T13:24:15.747Z,100110.91
2019-01-08T13:26:43.311Z,100105.06
2019-01-08T13:29:11.615Z,100106.89
2019-01-08T13:31:39.881Z,100103.23
2019-01-08T13:34:07.468Z,100106.72
2019-01-08T13:36:35.127Z,100096.08
2019-01-08T13:39:04.498Z,100095.42
2019-01-08T13:41:32.637Z,100107.35
2019-01-08T13:44:00.184Z,100106.06
2019-01-08T13:46:27.745Z,100107.05
2019-01-08T13:48:55.658Z,100114.68
2019-01-08T13:51:23.367Z,100122.30
2019-01-08T13:53:51.095Z,100119.75
2019-01-08T13:56:18.609Z,100118.63
2019-01-08T13:58:46.462Z,100112.20
2019-01-08T14:01:13.931Z,100120.12
2019-01-08T14:03:44.205Z,100110.38
2019-01-08T14:06:15.474Z,100108.95
2019-01-08T14:08:45.130Z,100109.18
2019-01-08T14:11:12.654Z,100110.14
2019-01-08T14:13:45.492Z,100109.31
2019-01-08T14:16:13.036Z,100118.70
2019-01-08T14:18:47.043Z,100127.11
2019-01-08T14:21:14.412Z,100120.70
2019-01-08T14:23:41.765Z,100120.38
2019-01-08T14:26:09.662Z,100121.91
2019-01-08T14:28:37.638Z,100131.35
2019-01-08T14:31:05.097Z,100136.09
2019-01-08T14:33:32.469Z,100125.37
2019-01-08T14:36:00.160Z,100138.16
2019-01-08T14:38:27.808Z,100119.42
2019-01-08T14:40:55.645Z,100107.25
2019-01-08T14:43:22.943Z,100121.25
2019-01-08T14:45:51.171Z,100127.67
2019-01-08T14:48:18.895Z,100117.70
2019-01-08T14:50:46.340Z,100114.91
2019-01-08T14:53:14.563Z,100125.43
2019-01-08T14:55:42.105Z,100133.18
2019-01-08T14:58:09.369Z,100150.02
2019-01-08T15:00:37.163Z,100122.61
2019-01-08T15:03:04.679Z,100130.74
2019-01-08T15:05:31.961Z,100130.56
2019-01-08T15:07:59.485Z,100127.85
2019-01-08T15:10:27.169Z,100129.97
2019-01-08T15:12:54.951Z,100131.85
2019-01-08T15:15:22.759Z,100126.31
2019-01-08T15:17:50.043Z,100128.66
2019-01-08T15:20:17.783Z,100129.61
2019-01-08T15:22:45.206Z,100125.88
2019-01-08T15:25:12.997Z,100118.21
2019-01-08T15:27:40.431Z,100126.28
2019-01-08T15:30:09.374Z,100129.35
2019-01-08T15:32:37.148Z,100126.59
2019-01-08T15:35:05.440Z,100132.25
2019-01-08T15:37:32.724Z,100132.67
2019-01-08T15:40:00.038Z,100129.66
2019-01-08T15:42:27.525Z,100132.17
2019-01-08T15:44:55.539Z,100126.03
2019-01-08T15:47:23.793Z,100127.23
2019-01-08T15:49:51.678Z,100134.52
2019-01-08T15:52:19.578Z,100142.28
2019-01-08T15:54:47.224Z,100129.56
2019-01-08T15:57:14.921Z,100129.23
2019-01-08T15:59:42.654Z,100141.58
2019-01-08T16:02:10.319Z,100145.27
2019-01-08T16:04:40.865Z,100139.09
2019-01-08T16:07:08.171Z,100124.38
2019-01-08T16:09:35.432Z,100123.92
2019-01-08T16:12:03.550Z,100132.11
2019-01-08T16:14:30.815Z,100131.02
2019-01-08T16:16:58.659Z,100126.26
2019-01-08T16:19:26.471Z,100134.03
2019-01-08T16:21:54.044Z,100117.02
2019-01-08T16:24:21.646Z,100149.37
2019-01-08T16:26:49.333Z,100138.34
2019-01-08T16:29:17.136Z,100156.70
2019-01-08T16:31:44.835Z,100143.11
2019-01-08T16:34:12.306Z,100143.11
2019-01-08T16:36:39.446Z,100146.70
2019-01-08T16:39:07.668Z,100125.98
2019-01-08T16:41:35.589Z,100131.54
2019-01-08T16:44:03.286Z,100136.79
2019-01-08T16:46:31.103Z,100142.02
2019-01-08T16:48:58.969Z,100144.63
2019-01-08T16:51:26.609Z,100145.51
2019-01-08T16:53:53.892Z,100147.88
2019-01-08T16:56:21.309Z,100146.17
2019-01-08T16:58:49.116Z,100143.95
2019-01-08T17:01:16.559Z,100149.63
2019-01-08T17:03:44.091Z,100153.54
2019-01-08T17:06:11.978Z,100144.75
2019-01-08T17:08:39.879Z,100149.21
2019-01-08T17:11:07.852Z,100173.82
2019-01-08T17:13:35.232Z,100186.91
2019-01-08T17:16:03.283Z,100192.61
2019-01-08T17:18:31.009Z,100181.45
2019-01-08T17:20:58.414Z,100178.01
2019-01-08T17:23:26.018Z,100191.27
2019-01-08T17:25:53.452Z,100187.62
2019-01-08T17:28:21.091Z,100184.48
2019-01-08T17:30:48.636Z,100187.86
2019-01-08T17:33:15.977Z,100172.02
2019-01-08T17:35:43.449Z,100168.01
2019-01-08T17:38:11.891Z,100178.80
2019-01-08T17:40:39.166Z,100175.69
2019-01-08T17:43:07.068Z,100174.98
2019-01-08T17:45:34.497Z,100164.69
2019-01-08T17:48:01.659Z,100165.31
2019-01-08T17:50:29.409Z,100170.66
2019-01-08T17:52:57.011Z,100167.02
2019-01-08T17:55:24.355Z,100163.05
2019-01-08T17:58:40.207Z,100160.25
2019-01-08T18:01:12.160Z,100163.58
2019-01-08T18:03:42.857Z,100151.38
2019-01-08T18:06:09.176Z,100145.84
2019-01-08T18:08:37.014Z,100135.01
2019-01-08T18:11:04.931Z,100140.12
2019-01-08T18:13:32.770Z,100151.61
2019-01-08T18:16:00.146Z,100124.00
2019-01-08T18:18:28.601Z,100136.50
2019-01-08T18:20:59.614Z,100140.78
2019-01-08T18:23:27.543Z,100135.76
2019-01-08T18:25:55.120Z,100125.45
2019-01-08T18:28:22.671Z,100126.40
2019-01-08T18:30:50.238Z,100115.44
2019-01-08T18:33:18.127Z,100111.29
2019-01-08T18:35:45.530Z,100099.31
2019-01-08T18:38:13.829Z,100123.35
2019-01-08T18:40:41.809Z,100118.67
2019-01-08T18:43:13.909Z,100132.44
2019-01-08T18:45:38.434Z,100140.34
2019-01-08T18:48:06.181Z,100133.36
2019-01-08T18:50:34.026Z,100138.77
2019-01-08T18:53:01.585Z,100130.34
2019-01-08T18:55:29.315Z,100133.26
2019-01-08T18:57:56.968Z,100147.02
2019-01-08T19:00:24.458Z,100157.55
2019-01-08T19:02:55.833Z,100151.27
2019-01-08T19:05:23.970Z,100162.31
2019-01-08T19:07:51.728Z,100155.84
2019-01-08T19:10:19.350Z,100177.22
2019-01-08T19:12:47.170Z,100163.88
2019-01-08T19:15:15.164Z,100156.06
2019-01-08T19:17:43.219Z,100150.25
2019-01-08T19:20:10.776Z,100159.09
2019-01-08T19:22:38.508Z,100146.06
2019-01-08T19:25:06.331Z,100145.75
2019-01-08T19:27:34.115Z,100142.13
2019-01-08T19:30:01.364Z,100141.16
2019-01-08T19:32:28.498Z,100140.11
2019-01-08T19:34:56.024Z,100122.81
2019-01-08T19:37:24.054Z,100132.94
2019-01-08T19:39:51.638Z,100138.45
2019-01-08T19:42:19.302Z,100130.01
2019-01-08T19:44:47.006Z,100140.77
2019-01-08T19:47:14.291Z,100139.41
2019-01-08T19:49:42.832Z,100126.04
2019-01-08T19:52:10.575Z,100135.13
2019-01-08T19:54:37.831Z,100144.39
2019-01-08T19:57:05.582Z,100154.41
2019-01-08T19:59:32.752Z,100156.90
2019-01-08T20:02:00.197Z,100154.71
2019-01-08T20:04:27.849Z,100163.58
2019-01-08T20:06:56.051Z,100166.50
2019-01-08T20:09:25.472Z,100163.27
2019-01-08T20:11:52.919Z,100171.40
2019-01-08T20:14:22.293Z,100177.00
2019-01-08T20:16:50.529Z,100181.80
2019-01-08T20:19:18.193Z,100191.20
2019-01-08T20:21:46.170Z,100196.19
2019-01-08T20:24:13.613Z,100182.55
2019-01-08T20:26:40.990Z,100187.02
2019-01-08T20:29:08.625Z,100173.38
2019-01-08T20:31:36.218Z,100170.88
2019-01-08T20:34:03.943Z,100166.28
2019-01-08T20:36:31.401Z,100159.30
2019-01-08T20:38:59.071Z,100162.84
2019-01-08T20:41:26.951Z,100174.94
2019-01-08T20:43:54.409Z,100163.89
2019-01-08T20:46:22.138Z,100159.83
2019-01-08T20:48:50.500Z,100163.89
2019-01-08T20:51:18.076Z,100170.23
2019-01-08T20:53:45.362Z,100170.44
2019-01-08T20:56:13.202Z,100163.36
2019-01-08T20:58:40.921Z,100180.05
2019-01-08T21:01:08.170Z,100173.47
2019-01-08T21:03:35.538Z,100169.92
2019-01-08T21:06:03.053Z,100169.52
2019-01-08T21:08:31.972Z,100173.16
2019-01-08T21:10:59.233Z,100164.20
2019-01-08T21:13:26.832Z,100158.56
2019-01-08T21:15:54.439Z,100161.70
2019-01-08T21:18:22.330Z,100155.02
2019-01-08T21:20:49.969Z,100148.90
2019-01-08T21:23:17.451Z,100156.19
2019-01-08T21:25:44.812Z,100146.38
2019-01-08T21:28:12.697Z,100155.15
2019-01-08T21:30:40.321Z,100150.56
2019-01-08T21:33:07.752Z,100155.23
2019-01-08T21:35:35.561Z,100154.19
2019-01-08T21:38:03.324Z,100144.93
2019-01-08T21:40:30.467Z,100133.05
2019-01-08T21:42:58.120Z,100157.86
2019-01-08T21:45:25.853Z,100160.25
2019-01-08T21:47:53.593Z,100159.30
2019-01-08T21:50:21.694Z,100151.08
2019-01-08T21:52:49.302Z,100162.01
2019-01-08T21:55:17.900Z,100162.32
2019-01-08T21:57:45.387Z,100172.23
2019-01-08T22:00:13.766Z,100168.78
2019-01-08T22:02:41.130Z,100160.26
2019-01-08T22:05:08.872Z,100154.19
2019-01-08T22:07:36.655Z,100149.82
2019-01-08T22:10:05.083Z,100142.65
2019-01-08T22:12:33.366Z,100134.31
2019-01-08T22:15:01.582Z,100130.12
2019-01-08T22:17:28.998Z,100134.70
2019-01-08T22:19:56.878Z,100138.77
2019-01-08T22:22:24.151Z,100134.92
2019-01-08T22:24:52.055Z,100125.14
2019-01-08T22:27:19.569Z,100130.34
2019-01-08T22:29:46.763Z,100130.47
2019-01-08T22:32:14.796Z,100132.00
2019-01-08T22:34:42.237Z,100134.91
2019-01-08T22:37:09.561Z,100123.55
2019-01-08T22:39:36.771Z,100132.19
2019-01-08T22:42:04.566Z,100132.00
2019-01-08T22:44:32.134Z,100125.31
2019-01-08T22:46:59.989Z,100126.57
2019-01-08T22:49:27.393Z,100123.86
2019-01-08T22:51:55.733Z,100132.05
2019-01-08T22:54:23.452Z,100126.22
2019-01-08T22:56:51.690Z,100129.34
2019-01-08T22:59:19.472Z,100123.51
2019-01-08T23:01:48.626Z,100127.70
2019-01-08T23:04:16.338Z,100123.51
2019-01-08T23:06:43.779Z,100109.59
2019-01-08T23:09:11.372Z,100111.87
2019-01-08T23:11:38.628Z,100115.92
2019-01-08T23:14:06.403Z,100115.32
2019-01-08T23:16:34.213Z,100116.58
2019-01-08T23:19:01.487Z,100115.22
2019-01-08T23:21:28.963Z,100113.75
2019-01-08T23:23:57.113Z,100122.19
2019-01-08T23:26:24.786Z,100120.73
2019-01-08T23:28:52.618Z,100118.77
2019-01-08T23:31:19.978Z,100119.81
2019-01-08T23:33:48.237Z,100108.78
2019-01-08T23:36:16.065Z,100109.39
2019-01-08T23:38:43.533Z,100121.67
2019-01-08T23:41:11.368Z,100113.36
2019-01-08T23:43:38.948Z,100114.80
2019-01-08T23:46:06.846Z,100108.88
2019-01-08T23:48:34.692Z,100110.75
2019-01-08T23:51:02.218Z,100114.50
2019-01-08T23:53:32.193Z,100097.01
2019-01-08T23:56:03.293Z,100098.05
2019-01-08T23:58:31.103Z,100104.60
